Terminal Aerodrome Forecast
Issued by NWS Corpus Christi, TX

Home | Current Version | Previous Version | Text Only | Print | Product List | Glossary On
Versions: 1 2 3 4 5 6 7 8 9 10 11 12 13 14
594
FTUS44 KCRP 222340
TAFCRP
TAF
KCRP 222340Z 2300/2324 14018G25KT P6SM FEW035
     FM230300 15012KT P6SM SCT015
     FM230800 15007KT P6SM BKN015
     FM231500 16018G25KT P6SM BKN025
     FM231700 13025G30KT P6SM SCT035=

USA.gov is the U.S. government's official web portal to all federal, state and local government web resources and services.